Ana Sayfa
METAR-TAF:

METAR-TAF

Havaalanları :

Cape May County Airport

Wildwood, New Jersey, Amerika Birleşik Devletleri

Enlem: 39-01N, Boylam: 074-55W, yükseklik: 7 m

Güncel hava durumu gözlemi

Rapor saat 20:56 UTC de 53 dakika önce yapıldı.
Rüzgar güneydan 9 kt
Sıcaklık 12°C
Nem 54%
Basınç 1015 hPa
Görüş mesafesi: 16.1 km
11000 ft yükseklikte az bulutlu

METAR: KWWD 242056Z AUTO 19009KT 10SM FEW110 12/03 A2998 RMK AO2 SLP155 T01220033 56020

Saat: 16:49 (21:49 UTC)


TAF: eksik

4.000'den fazla havaalanı için hava durumu gözlemleri ve tahminleri (METAR ve TAF raporları).

Kullanılabilir istasyonlar harita üzerinde sarı ve kırmızı noktalarla gösterilir.

İstasyonun adını görmek için fareyi noktanın üzerinde gezdirin.

Sonrasında hava gözlem ve tahminlerini görmek için tıklayın.

Haritayı değiştirmek için: yaklaştırmak için siyah artı işaretli yeşil düğmeye ve uzaklaştırmak için de eksi işaretli düğmeye hızla tıklayın; bitişik haritalar için yeşil okları kullanın.


METAR-TAF: